Time;durP1;ratioP1;P1;durP2;ratioP2;P2;SDS_P1;SDS_P2;PMS_P1;PMS_P2;Temp;Humidity;BMP_temperature;BMP_pressure;BME280_temperature;BME280_humidity;BME280_pressure;Samples;Min_cycle;Max_cycle;Signal;HPM_P1;HPM_P2
2023/05/17 00:02:17;;;;;;;13.07;12.38;;;;;;;;;;5035622;28;20072;-66
2023/05/17 00:04:44;;;;;;;13.25;12.55;;;;;;;;;;5031207;28;20037;-67
2023/05/17 00:07:09;;;;;;;11.50;11.00;;;;;;;;;;5027920;28;20025;-66
2023/05/17 00:09:34;;;;;;;12.70;12.10;;;;;;;;;;5020327;28;20018;-66
2023/05/17 00:12:00;;;;;;;12.20;11.60;;;;;;;;;;5033654;28;20021;-66
2023/05/17 00:14:25;;;;;;;12.30;11.70;;;;;;;;;;5030243;28;20051;-67
2023/05/17 00:16:51;;;;;;;12.30;11.70;;;;;;;;;;5024404;28;20018;-66
2023/05/17 00:19:16;;;;;;;12.52;11.93;;;;;;;;;;5032837;28;20017;-66
2023/05/17 00:21:42;;;;;;;12.88;12.18;;;;;;;;;;5022273;28;20056;-67
2023/05/17 00:24:08;;;;;;;12.00;11.40;;;;;;;;;;5026344;28;20022;-67
2023/05/17 00:26:35;;;;;;;12.75;12.10;;;;;;;;;;5033576;28;20021;-66
2023/05/17 00:29:00;;;;;;;12.75;12.05;;;;;;;;;;5028001;28;20067;-67
2023/05/17 00:31:26;;;;;;;12.82;12.13;;;;;;;;;;5032248;28;20029;-66
2023/05/17 00:33:51;;;;;;;12.50;11.90;;;;;;;;;;5026765;28;20425;-67
2023/05/17 00:36:16;;;;;;;12.15;11.55;;;;;;;;;;5030446;28;20021;-67
2023/05/17 00:38:42;;;;;;;12.60;12.00;;;;;;;;;;5034109;28;20045;-66
2023/05/17 00:41:07;;;;;;;12.20;11.60;;;;;;;;;;5034247;28;20534;-67
2023/05/17 00:43:32;;;;;;;12.00;11.40;;;;;;;;;;5031752;28;20610;-67
2023/05/17 00:45:58;;;;;;;11.77;11.25;;;;;;;;;;5034100;28;20697;-66
2023/05/17 00:48:26;;;;;;;12.40;11.80;;;;;;;;;;5026486;28;20056;-67
2023/05/17 00:50:52;;;;;;;12.68;12.05;;;;;;;;;;5025576;28;20484;-66
2023/05/17 00:53:18;;;;;;;12.23;11.63;;;;;;;;;;5029556;28;20033;-66
2023/05/17 00:55:43;;;;;;;12.52;11.93;;;;;;;;;;5025570;28;20468;-67
2023/05/17 00:58:10;;;;;;;12.80;12.18;;;;;;;;;;5023159;28;20025;-66
2023/05/17 01:00:36;;;;;;;12.30;11.70;;;;;;;;;;5030187;28;20128;-67
2023/05/17 01:03:01;;;;;;;12.00;11.40;;;;;;;;;;5028750;28;20129;-67
2023/05/17 01:05:27;;;;;;;12.10;11.50;;;;;;;;;;5028964;28;20021;-67
2023/05/17 01:07:52;;;;;;;11.40;10.90;;;;;;;;;;5030442;28;20500;-66
2023/05/17 01:10:18;;;;;;;12.40;11.80;;;;;;;;;;5031224;28;20052;-66
2023/05/17 01:12:46;;;;;;;12.35;11.75;;;;;;;;;;5029225;28;20441;-66
2023/05/17 01:15:17;;;;;;;11.93;11.32;;;;;;;;;;5029054;28;20432;-66
2023/05/17 01:17:45;;;;;;;12.00;11.40;;;;;;;;;;5029398;28;20018;-68
2023/05/17 01:20:15;;;;;;;12.00;11.40;;;;;;;;;;5030359;28;20036;-67
2023/05/17 01:22:50;;;;;;;12.13;11.52;;;;;;;;;;5020544;28;20087;-67
2023/05/17 01:25:20;;;;;;;12.07;11.48;;;;;;;;;;5025275;28;20362;-67
2023/05/17 01:27:47;;;;;;;12.10;11.50;;;;;;;;;;5026634;28;20152;-67
2023/05/17 01:30:14;;;;;;;12.38;11.77;;;;;;;;;;5030032;28;20083;-67
2023/05/17 01:32:42;;;;;;;11.80;11.20;;;;;;;;;;5031569;28;20017;-67
2023/05/17 01:35:08;;;;;;;12.63;12.00;;;;;;;;;;5030211;28;20033;-67
2023/05/17 01:37:33;;;;;;;12.60;12.00;;;;;;;;;;5037526;28;20109;-67
2023/05/17 01:39:58;;;;;;;12.32;11.73;;;;;;;;;;5030388;28;20026;-66
2023/05/17 01:42:32;;;;;;;12.52;11.93;;;;;;;;;;5032208;28;20018;-66
2023/05/17 01:45:01;;;;;;;12.30;11.70;;;;;;;;;;5031413;28;20021;-66
2023/05/17 01:47:30;;;;;;;13.23;12.52;;;;;;;;;;5043243;28;20021;-67
2023/05/17 01:49:58;;;;;;;12.40;11.80;;;;;;;;;;5032113;28;20021;-68
2023/05/17 01:52:27;;;;;;;12.77;12.07;;;;;;;;;;5027789;28;20390;-68
2023/05/17 01:54:58;;;;;;;13.00;12.30;;;;;;;;;;5029526;28;20397;-68
2023/05/17 01:57:27;;;;;;;12.30;11.70;;;;;;;;;;5029543;28;20079;-67
2023/05/17 01:59:54;;;;;;;12.27;11.68;;;;;;;;;;5037023;28;20105;-67
2023/05/17 02:02:21;;;;;;;12.60;12.00;;;;;;;;;;5005625;28;20038;-67
2023/05/17 02:04:47;;;;;;;12.45;11.85;;;;;;;;;;5028656;28;20013;-66
2023/05/17 02:07:12;;;;;;;12.48;11.88;;;;;;;;;;5036857;28;20437;-67
2023/05/17 02:09:37;;;;;;;12.77;12.07;;;;;;;;;;5029887;28;20032;-68
2023/05/17 02:12:02;;;;;;;11.80;11.20;;;;;;;;;;5028399;28;20600;-67
2023/05/17 02:14:28;;;;;;;12.23;11.63;;;;;;;;;;5033307;28;20104;-68
2023/05/17 02:16:53;;;;;;;11.95;11.35;;;;;;;;;;5030392;28;20071;-67
2023/05/17 02:19:18;;;;;;;11.88;11.27;;;;;;;;;;5037147;28;20492;-66
2023/05/17 02:21:44;;;;;;;13.10;12.40;;;;;;;;;;5031114;28;20037;-66
2023/05/17 02:24:10;;;;;;;12.20;11.60;;;;;;;;;;5026314;28;20029;-67
2023/05/17 02:26:35;;;;;;;12.75;12.07;;;;;;;;;;5031669;28;20044;-67
2023/05/17 02:29:00;;;;;;;11.88;11.27;;;;;;;;;;5034274;28;20135;-67
2023/05/17 02:31:26;;;;;;;12.48;11.88;;;;;;;;;;5026651;28;20056;-66
2023/05/17 02:33:54;;;;;;;12.07;11.48;;;;;;;;;;5028414;28;20102;-66
2023/05/17 02:36:20;;;;;;;12.38;11.77;;;;;;;;;;5035806;28;20032;-67
2023/05/17 02:38:45;;;;;;;12.05;11.45;;;;;;;;;;5032079;28;20424;-67
2023/05/17 02:41:10;;;;;;;12.43;11.82;;;;;;;;;;5034900;28;20033;-67
2023/05/17 02:43:36;;;;;;;12.63;12.00;;;;;;;;;;5039692;28;20488;-66
2023/05/17 02:46:01;;;;;;;12.27;11.68;;;;;;;;;;5033096;28;20029;-67
2023/05/17 02:48:26;;;;;;;12.10;11.50;;;;;;;;;;5034605;28;20025;-67
2023/05/17 02:50:52;;;;;;;12.27;11.68;;;;;;;;;;5036990;28;20026;-66
2023/05/17 02:53:17;;;;;;;12.88;12.18;;;;;;;;;;5032526;28;20016;-67
2023/05/17 02:55:42;;;;;;;12.43;11.82;;;;;;;;;;5032819;28;20555;-67
2023/05/17 02:58:07;;;;;;;13.30;12.60;;;;;;;;;;5038016;28;20029;-67
2023/05/17 03:00:33;;;;;;;12.95;12.25;;;;;;;;;;5031371;28;20030;-67
2023/05/17 03:02:58;;;;;;;12.15;11.55;;;;;;;;;;5030900;28;20054;-66
2023/05/17 03:05:23;;;;;;;12.40;11.77;;;;;;;;;;5036435;28;20021;-67
2023/05/17 03:07:49;;;;;;;11.95;11.35;;;;;;;;;;5031732;28;20104;-66
2023/05/17 03:10:15;;;;;;;12.43;11.82;;;;;;;;;;5028618;28;20080;-67
2023/05/17 03:12:40;;;;;;;12.75;12.05;;;;;;;;;;5026866;28;20053;-67
2023/05/17 03:15:05;;;;;;;12.55;11.90;;;;;;;;;;5032877;28;20029;-67
2023/05/17 03:17:31;;;;;;;12.70;12.00;;;;;;;;;;5034933;28;20018;-67
2023/05/17 03:19:56;;;;;;;13.38;12.68;;;;;;;;;;5031404;28;20022;-67
2023/05/17 03:22:22;;;;;;;13.15;12.45;;;;;;;;;;5033761;28;20028;-66
2023/05/17 03:24:49;;;;;;;12.38;11.77;;;;;;;;;;5032857;28;20013;-67
2023/05/17 03:27:15;;;;;;;12.30;11.70;;;;;;;;;;5030392;28;20397;-67
2023/05/17 03:29:40;;;;;;;12.85;12.15;;;;;;;;;;5027232;28;20026;-67
2023/05/17 03:32:07;;;;;;;12.32;11.73;;;;;;;;;;5031041;28;20381;-67
2023/05/17 03:34:32;;;;;;;11.95;11.35;;;;;;;;;;5034221;28;20092;-67
2023/05/17 03:36:57;;;;;;;12.05;11.45;;;;;;;;;;5031742;28;20157;-67
2023/05/17 03:39:23;;;;;;;11.63;11.02;;;;;;;;;;5030385;28;20503;-66
2023/05/17 03:41:49;;;;;;;12.85;12.15;;;;;;;;;;5024277;28;20041;-65
2023/05/17 03:44:14;;;;;;;12.43;11.82;;;;;;;;;;5022473;28;20025;-65
2023/05/17 03:46:40;;;;;;;12.82;12.13;;;;;;;;;;5030652;28;20018;-65
2023/05/17 03:49:05;;;;;;;12.18;11.57;;;;;;;;;;5027454;28;20673;-65
2023/05/17 03:51:30;;;;;;;12.57;11.93;;;;;;;;;;5032995;28;20729;-64
2023/05/17 03:53:56;;;;;;;12.88;12.18;;;;;;;;;;5033679;28;20021;-65
2023/05/17 03:56:22;;;;;;;12.35;11.75;;;;;;;;;;5037347;28;20020;-72
2023/05/17 03:58:47;;;;;;;12.65;12.00;;;;;;;;;;5031159;28;20487;-66
2023/05/17 04:01:12;;;;;;;12.23;11.63;;;;;;;;;;5031060;28;20045;-65
2023/05/17 04:03:38;;;;;;;13.10;12.40;;;;;;;;;;5025294;28;20188;-66
2023/05/17 04:06:07;;;;;;;12.07;11.48;;;;;;;;;;5032500;28;20029;-66
2023/05/17 04:08:33;;;;;;;12.90;12.20;;;;;;;;;;5037983;28;20026;-65
2023/05/17 04:11:00;;;;;;;13.13;12.43;;;;;;;;;;5036346;28;20132;-65
2023/05/17 04:13:25;;;;;;;12.07;11.48;;;;;;;;;;5031450;28;20036;-65
2023/05/17 04:15:50;;;;;;;12.63;12.00;;;;;;;;;;5031179;28;20100;-65
2023/05/17 04:18:15;;;;;;;12.40;11.80;;;;;;;;;;5033436;28;20026;-65
2023/05/17 04:20:41;;;;;;;13.00;12.30;;;;;;;;;;5026690;28;20108;-65
2023/05/17 04:23:07;;;;;;;13.02;12.32;;;;;;;;;;5022436;28;20084;-66
2023/05/17 04:25:32;;;;;;;13.05;12.35;;;;;;;;;;5019337;28;20036;-66
2023/05/17 04:27:58;;;;;;;12.98;12.27;;;;;;;;;;5027941;28;20037;-65
2023/05/17 04:30:23;;;;;;;13.23;12.52;;;;;;;;;;5022591;28;20477;-65
2023/05/17 04:32:49;;;;;;;11.82;11.23;;;;;;;;;;5022955;28;20065;-66
2023/05/17 04:35:14;;;;;;;13.00;12.30;;;;;;;;;;5027748;28;20025;-65
2023/05/17 04:37:40;;;;;;;12.98;12.27;;;;;;;;;;5027261;28;20029;-65
2023/05/17 04:40:06;;;;;;;12.93;12.23;;;;;;;;;;5030587;28;21364;-65
2023/05/17 04:42:31;;;;;;;12.50;11.90;;;;;;;;;;5033591;28;20041;-66
2023/05/17 04:44:57;;;;;;;13.75;12.95;;;;;;;;;;5028276;28;20033;-66
2023/05/17 04:47:22;;;;;;;13.73;12.93;;;;;;;;;;5027175;28;20021;-65
2023/05/17 04:49:47;;;;;;;13.50;12.75;;;;;;;;;;5032820;28;20096;-66
2023/05/17 04:52:13;;;;;;;13.10;12.40;;;;;;;;;;5026196;28;20431;-66
2023/05/17 04:54:38;;;;;;;13.05;12.35;;;;;;;;;;5023485;28;20040;-65
2023/05/17 04:57:03;;;;;;;12.90;12.20;;;;;;;;;;5023527;28;20048;-65
2023/05/17 04:59:29;;;;;;;13.00;12.30;;;;;;;;;;5021583;28;20030;-66
2023/05/17 05:01:55;;;;;;;12.20;11.60;;;;;;;;;;5025992;28;20026;-66
2023/05/17 05:04:20;;;;;;;13.27;12.57;;;;;;;;;;5026055;28;20061;-65
2023/05/17 05:06:46;;;;;;;12.77;12.07;;;;;;;;;;5028315;28;20025;-66
2023/05/17 05:09:11;;;;;;;12.93;12.23;;;;;;;;;;5026444;28;20029;-66
2023/05/17 05:11:37;;;;;;;13.75;12.95;;;;;;;;;;5030582;28;20034;-65
2023/05/17 05:14:02;;;;;;;13.52;12.77;;;;;;;;;;5029770;28;20013;-65
2023/05/17 05:16:27;;;;;;;13.02;12.32;;;;;;;;;;5030393;28;20099;-66
2023/05/17 05:18:53;;;;;;;12.27;11.68;;;;;;;;;;5025227;28;20033;-65
2023/05/17 05:21:19;;;;;;;12.90;12.25;;;;;;;;;;5031875;28;20025;-66
2023/05/17 05:23:44;;;;;;;13.13;12.43;;;;;;;;;;5032970;28;20427;-66
2023/05/17 05:26:09;;;;;;;12.88;12.20;;;;;;;;;;5033564;28;20067;-66
2023/05/17 05:28:34;;;;;;;12.90;12.20;;;;;;;;;;5022993;28;20032;-66
2023/05/17 05:31:00;;;;;;;12.57;11.98;;;;;;;;;;5029579;28;20021;-66
2023/05/17 05:33:26;;;;;;;12.30;11.70;;;;;;;;;;5029814;28;20016;-67
2023/05/17 05:35:51;;;;;;;12.90;12.20;;;;;;;;;;5026280;28;21134;-66
2023/05/17 05:38:16;;;;;;;13.30;12.60;;;;;;;;;;5026880;28;20428;-65
2023/05/17 05:40:42;;;;;;;12.93;12.23;;;;;;;;;;5032468;28;20539;-65
2023/05/17 05:43:07;;;;;;;12.80;12.20;;;;;;;;;;5032639;28;20033;-65
2023/05/17 05:45:33;;;;;;;13.13;12.43;;;;;;;;;;5027942;28;20032;-65
2023/05/17 05:47:58;;;;;;;12.77;12.18;;;;;;;;;;5032603;28;20492;-65
2023/05/17 05:50:24;;;;;;;13.25;12.55;;;;;;;;;;5032726;28;20082;-65
2023/05/17 05:52:49;;;;;;;13.43;12.73;;;;;;;;;;5027201;28;20017;-69
2023/05/17 05:55:14;;;;;;;12.88;12.27;;;;;;;;;;5029222;28;20048;-66
2023/05/17 05:57:41;;;;;;;12.20;11.60;;;;;;;;;;5025039;28;20041;-67
2023/05/17 06:00:06;;;;;;;12.50;11.90;;;;;;;;;;5026976;28;20024;-66
2023/05/17 06:02:32;;;;;;;12.95;12.35;;;;;;;;;;5029418;28;20054;-66
2023/05/17 06:04:57;;;;;;;12.13;11.52;;;;;;;;;;5031750;28;20047;-65
2023/05/17 06:07:22;;;;;;;12.32;11.73;;;;;;;;;;5031359;28;20088;-67
2023/05/17 06:09:48;;;;;;;13.25;12.60;;;;;;;;;;5028901;28;20072;-65
2023/05/17 06:12:13;;;;;;;12.70;12.10;;;;;;;;;;5028336;28;20033;-67
2023/05/17 06:14:38;;;;;;;13.63;12.93;;;;;;;;;;5026078;28;20022;-71
2023/05/17 06:17:04;;;;;;;14.63;13.85;;;;;;;;;;5029666;28;20025;-69
2023/05/17 06:19:29;;;;;;;12.60;12.00;;;;;;;;;;5025954;28;20033;-64
2023/05/17 06:21:54;;;;;;;15.40;14.60;;;;;;;;;;5029085;28;20024;-69
2023/05/17 06:24:19;;;;;;;12.73;12.13;;;;;;;;;;5029624;28;20283;-69
2023/05/17 06:26:46;;;;;;;13.55;12.85;;;;;;;;;;5029848;28;20448;-68
2023/05/17 06:29:11;;;;;;;12.93;12.27;;;;;;;;;;5030094;28;20042;-68
2023/05/17 06:31:36;;;;;;;13.68;12.98;;;;;;;;;;5031261;28;20404;-69
2023/05/17 06:34:01;;;;;;;12.77;12.18;;;;;;;;;;5025753;28;20477;-72
2023/05/17 06:36:27;;;;;;;14.27;13.50;;;;;;;;;;5026654;28;20060;-69
2023/05/17 06:38:52;;;;;;;13.00;12.38;;;;;;;;;;5030676;28;20533;-70
2023/05/17 06:41:17;;;;;;;13.05;12.43;;;;;;;;;;5031443;28;20408;-69
2023/05/17 06:43:42;;;;;;;13.20;12.52;;;;;;;;;;5026705;28;20036;-70
2023/05/17 06:46:08;;;;;;;13.57;12.88;;;;;;;;;;5026135;28;20393;-69
2023/05/17 06:48:33;;;;;;;13.18;12.55;;;;;;;;;;5032129;28;20108;-70
2023/05/17 06:50:58;;;;;;;13.02;12.43;;;;;;;;;;5034184;28;20029;-69
2023/05/17 06:53:25;;;;;;;13.25;12.63;;;;;;;;;;5023796;28;20033;-70
2023/05/17 06:55:51;;;;;;;14.07;13.38;;;;;;;;;;5024847;28;20021;-68
2023/05/17 06:58:16;;;;;;;13.67;12.97;;;;;;;;;;5025665;28;20075;-69
2023/05/17 07:00:41;;;;;;;13.75;13.05;;;;;;;;;;5026342;28;20306;-69
2023/05/17 07:03:06;;;;;;;13.50;12.80;;;;;;;;;;5025608;28;20061;-68
2023/05/17 07:05:33;;;;;;;13.70;13.00;;;;;;;;;;5025135;28;20354;-71
2023/05/17 07:07:58;;;;;;;13.85;13.15;;;;;;;;;;5023349;28;20018;-69
2023/05/17 07:10:24;;;;;;;13.15;12.55;;;;;;;;;;5008185;28;20466;-68
2023/05/17 07:12:49;;;;;;;12.98;12.38;;;;;;;;;;5021018;28;20026;-70
2023/05/17 07:15:14;;;;;;;13.85;13.15;;;;;;;;;;5022070;28;20022;-69
2023/05/17 07:17:40;;;;;;;13.18;12.57;;;;;;;;;;5026106;28;20485;-69
2023/05/17 07:20:05;;;;;;;13.25;12.65;;;;;;;;;;5027564;28;20014;-73
2023/05/17 07:22:32;;;;;;;13.75;13.05;;;;;;;;;;5024611;28;20516;-73
2023/05/17 07:24:57;;;;;;;14.10;13.40;;;;;;;;;;5025070;28;20033;-72
2023/05/17 07:27:22;;;;;;;13.85;13.15;;;;;;;;;;5031754;28;20013;-73
2023/05/17 07:29:48;;;;;;;13.63;12.93;;;;;;;;;;5026771;28;20037;-72
2023/05/17 07:32:14;;;;;;;13.93;13.23;;;;;;;;;;5021750;28;20029;-67
2023/05/17 07:34:40;;;;;;;13.32;12.70;;;;;;;;;;5026492;28;20274;-68
2023/05/17 07:37:05;;;;;;;13.07;12.48;;;;;;;;;;5026065;28;20393;-69
2023/05/17 07:39:30;;;;;;;13.40;12.73;;;;;;;;;;5028072;28;20848;-71
2023/05/17 07:41:56;;;;;;;13.52;12.82;;;;;;;;;;5024563;28;20104;-71
2023/05/17 07:44:21;;;;;;;13.63;12.93;;;;;;;;;;5019526;28;20017;-67
2023/05/17 07:46:46;;;;;;;12.57;11.98;;;;;;;;;;5025648;28;20677;-66
2023/05/17 07:49:12;;;;;;;13.77;13.07;;;;;;;;;;5030264;28;20041;-69
2023/05/17 07:51:37;;;;;;;13.65;12.95;;;;;;;;;;5024858;28;20055;-68
2023/05/17 07:54:03;;;;;;;13.43;12.75;;;;;;;;;;5021866;28;20017;-69
2023/05/17 07:56:28;;;;;;;12.93;12.32;;;;;;;;;;5023296;28;20025;-67
2023/05/17 07:58:54;;;;;;;13.40;12.70;;;;;;;;;;5025658;28;20184;-64
2023/05/17 08:01:19;;;;;;;12.60;12.00;;;;;;;;;;5006521;28;20179;-68
2023/05/17 08:03:46;;;;;;;12.88;12.27;;;;;;;;;;5018845;28;20582;-65
2023/05/17 08:06:15;;;;;;;13.02;12.43;;;;;;;;;;5020238;28;20742;-67
2023/05/17 08:08:41;;;;;;;13.48;12.77;;;;;;;;;;5019804;28;20030;-67
2023/05/17 08:11:06;;;;;;;13.15;12.55;;;;;;;;;;5024762;28;20028;-69
2023/05/17 08:13:31;;;;;;;14.15;13.45;;;;;;;;;;5020861;28;20024;-67
2023/05/17 08:16:01;;;;;;;12.93;12.32;;;;;;;;;;5024537;28;20025;-66
2023/05/17 08:18:27;;;;;;;13.60;12.90;;;;;;;;;;5022669;28;20033;-67
2023/05/17 08:20:52;;;;;;;13.65;12.95;;;;;;;;;;5026573;28;20029;-68
2023/05/17 08:23:18;;;;;;;13.23;12.57;;;;;;;;;;5027742;28;20044;-69
2023/05/17 08:25:43;;;;;;;14.27;13.57;;;;;;;;;;5022540;28;20279;-68
2023/05/17 08:28:09;;;;;;;13.57;12.88;;;;;;;;;;5026771;28;20120;-68
2023/05/17 08:30:34;;;;;;;13.93;13.23;;;;;;;;;;5025669;28;20029;-67
2023/05/17 08:33:00;;;;;;;13.68;12.98;;;;;;;;;;5029000;28;20485;-65
2023/05/17 08:35:26;;;;;;;13.65;12.95;;;;;;;;;;5018959;28;20401;-64
2023/05/17 08:37:51;;;;;;;13.18;12.55;;;;;;;;;;5017927;28;20028;-67
2023/05/17 08:40:19;;;;;;;13.60;12.90;;;;;;;;;;5022474;28;20056;-68
2023/05/17 08:42:45;;;;;;;13.90;13.20;;;;;;;;;;5024343;28;20503;-68
2023/05/17 08:45:10;;;;;;;14.23;13.52;;;;;;;;;;5022312;28;20030;-67
2023/05/17 08:47:37;;;;;;;13.00;12.40;;;;;;;;;;5027437;28;20103;-69
2023/05/17 08:50:04;;;;;;;13.18;12.52;;;;;;;;;;5029812;28;20022;-67
2023/05/17 08:52:33;;;;;;;13.48;12.77;;;;;;;;;;5022461;28;20075;-67
2023/05/17 08:55:04;;;;;;;12.75;12.15;;;;;;;;;;5026920;28;20105;-67
2023/05/17 08:57:31;;;;;;;14.18;13.48;;;;;;;;;;5022725;28;20080;-68
2023/05/17 08:59:57;;;;;;;14.15;13.45;;;;;;;;;;5021439;28;20101;-66
2023/05/17 09:02:23;;;;;;;14.00;13.30;;;;;;;;;;5016815;28;20428;-66
2023/05/17 09:04:54;;;;;;;13.35;12.68;;;;;;;;;;5024091;28;20037;-68
2023/05/17 09:07:19;;;;;;;13.00;12.40;;;;;;;;;;5020090;28;20029;-68
2023/05/17 09:09:44;;;;;;;13.77;13.07;;;;;;;;;;5024777;28;20686;-68
2023/05/17 09:12:10;;;;;;;13.02;12.43;;;;;;;;;;5025810;28;20404;-68
2023/05/17 09:14:35;;;;;;;13.88;13.18;;;;;;;;;;5033455;28;20021;-71
2023/05/17 09:17:01;;;;;;;13.70;13.00;;;;;;;;;;5032166;28;20018;-69
2023/05/17 09:19:26;;;;;;;13.38;12.68;;;;;;;;;;5020795;28;20028;-69
2023/05/17 09:21:56;;;;;;;13.23;12.55;;;;;;;;;;5033640;28;20029;-69
2023/05/17 09:24:29;;;;;;;14.05;13.35;;;;;;;;;;5029156;28;20022;-71
2023/05/17 09:27:00;;;;;;;13.23;12.57;;;;;;;;;;5031145;28;20035;-67
2023/05/17 09:29:25;;;;;;;13.73;13.02;;;;;;;;;;5032154;28;20452;-68
2023/05/17 09:31:50;;;;;;;13.70;13.00;;;;;;;;;;5030032;28;20239;-69
2023/05/17 09:34:19;;;;;;;14.10;13.40;;;;;;;;;;5033617;28;20032;-67
2023/05/17 09:36:44;;;;;;;14.90;14.10;;;;;;;;;;5027603;28;20108;-70
2023/05/17 09:39:11;;;;;;;13.55;12.85;;;;;;;;;;5034820;28;20099;-68
2023/05/17 09:41:45;;;;;;;14.18;13.48;;;;;;;;;;5032258;28;20487;-67
2023/05/17 09:44:11;;;;;;;13.25;12.57;;;;;;;;;;5028932;28;20048;-69
2023/05/17 09:46:40;;;;;;;14.23;13.52;;;;;;;;;;5030031;28;20501;-69
2023/05/17 09:49:07;;;;;;;12.82;12.23;;;;;;;;;;5030050;28;20230;-69
2023/05/17 09:51:40;;;;;;;13.75;13.05;;;;;;;;;;5034419;28;20052;-70
2023/05/17 09:54:06;;;;;;;13.52;12.82;;;;;;;;;;5027588;28;20432;-69
2023/05/17 09:56:33;;;;;;;13.77;13.07;;;;;;;;;;5032133;28;20456;-69
2023/05/17 09:59:03;;;;;;;13.65;12.95;;;;;;;;;;5029576;28;20698;-69
2023/05/17 10:01:29;;;;;;;13.00;12.38;;;;;;;;;;5032218;28;20056;-69
2023/05/17 10:03:58;;;;;;;13.73;13.02;;;;;;;;;;5027546;28;20053;-70
2023/05/17 10:06:25;;;;;;;12.88;12.27;;;;;;;;;;5030451;28;20032;-70
2023/05/17 10:08:53;;;;;;;12.65;12.05;;;;;;;;;;5032695;28;20330;-70
2023/05/17 10:11:21;;;;;;;13.70;13.00;;;;;;;;;;5034999;28;20068;-70
2023/05/17 10:13:52;;;;;;;13.00;12.40;;;;;;;;;;5037671;28;20022;-71
2023/05/17 10:16:19;;;;;;;13.65;12.95;;;;;;;;;;5044896;28;20017;-69
2023/05/17 10:18:46;;;;;;;13.55;12.85;;;;;;;;;;5038170;28;20083;-71
2023/05/17 10:21:12;;;;;;;13.77;13.07;;;;;;;;;;5029182;28;20040;-72
2023/05/17 10:23:38;;;;;;;13.63;12.93;;;;;;;;;;5028804;28;20062;-70
2023/05/17 10:26:04;;;;;;;12.65;12.05;;;;;;;;;;5031720;28;20400;-71
2023/05/17 10:28:29;;;;;;;13.15;12.55;;;;;;;;;;5026711;28;20108;-70
2023/05/17 10:30:56;;;;;;;13.50;12.80;;;;;;;;;;5027591;28;20021;-68
2023/05/17 10:33:21;;;;;;;13.88;13.18;;;;;;;;;;5025751;28;20029;-69
2023/05/17 10:35:48;;;;;;;13.65;12.95;;;;;;;;;;5043246;28;20396;-69
2023/05/17 10:38:14;;;;;;;14.15;13.45;;;;;;;;;;5033358;28;20068;-69
2023/05/17 10:40:41;;;;;;;13.77;13.07;;;;;;;;;;5031391;28;21002;-71
2023/05/17 10:43:07;;;;;;;13.02;12.43;;;;;;;;;;5043831;28;20072;-71
2023/05/17 10:45:32;;;;;;;14.70;13.90;;;;;;;;;;5024194;28;20323;-75
2023/05/17 10:47:59;;;;;;;13.88;13.18;;;;;;;;;;5026934;28;20088;-64
2023/05/17 10:50:25;;;;;;;12.35;11.75;;;;;;;;;;5033136;28;20049;-67
2023/05/17 10:52:52;;;;;;;13.00;12.40;;;;;;;;;;5031546;28;20095;-67
2023/05/17 10:55:21;;;;;;;12.48;11.88;;;;;;;;;;5036701;28;20020;-67
2023/05/17 10:58:07;;;;;;;12.55;11.95;;;;;;;;;;5031065;28;20022;-66
2023/05/17 11:00:37;;;;;;;14.65;13.90;;;;;;;;;;5038157;28;20029;-65
2023/05/17 11:03:27;;;;;;;13.20;12.55;;;;;;;;;;5031786;28;20202;-67
2023/05/17 11:06:11;;;;;;;13.43;12.75;;;;;;;;;;5025337;28;20086;-66
2023/05/17 11:08:41;;;;;;;13.85;13.15;;;;;;;;;;5026182;28;20049;-65
2023/05/17 11:11:07;;;;;;;13.23;12.60;;;;;;;;;;5027783;28;20088;-68
2023/05/17 11:13:33;;;;;;;13.98;13.27;;;;;;;;;;5028038;28;20025;-66
2023/05/17 11:16:01;;;;;;;14.48;13.77;;;;;;;;;;5023533;28;20615;-67
2023/05/17 11:18:27;;;;;;;13.70;13.00;;;;;;;;;;5024652;28;20017;-67
2023/05/17 11:21:06;;;;;;;13.80;13.10;;;;;;;;;;5031284;28;20036;-67
2023/05/17 11:23:34;;;;;;;14.52;13.77;;;;;;;;;;5026121;28;20084;-68
2023/05/17 11:26:10;;;;;;;13.90;13.20;;;;;;;;;;5026522;28;20025;-69
2023/05/17 11:28:37;;;;;;;13.20;12.60;;;;;;;;;;5025805;28;20029;-67
2023/05/17 11:31:03;;;;;;;13.70;13.00;;;;;;;;;;5026448;28;20408;-68
2023/05/17 11:33:40;;;;;;;14.30;13.60;;;;;;;;;;5029607;28;20079;-66
2023/05/17 11:36:12;;;;;;;12.98;12.38;;;;;;;;;;5023113;28;20012;-70
2023/05/17 11:38:37;;;;;;;13.63;12.93;;;;;;;;;;5026975;28;20087;-68
2023/05/17 11:41:21;;;;;;;14.32;13.63;;;;;;;;;;5028386;28;20062;-65
2023/05/17 11:43:50;;;;;;;13.13;12.52;;;;;;;;;;5031313;28;20477;-65
2023/05/17 11:46:19;;;;;;;13.10;12.50;;;;;;;;;;5028286;28;20390;-69
2023/05/17 11:48:45;;;;;;;14.40;13.70;;;;;;;;;;5019019;28;20078;-69
2023/05/17 11:51:13;;;;;;;14.10;13.40;;;;;;;;;;5025218;28;20112;-70
2023/05/17 11:53:38;;;;;;;13.27;12.68;;;;;;;;;;5029338;28;20079;-70
2023/05/17 11:56:04;;;;;;;13.52;12.82;;;;;;;;;;5030762;28;20488;-69
2023/05/17 11:58:30;;;;;;;13.88;13.18;;;;;;;;;;5025295;28;20181;-70
2023/05/17 12:00:56;;;;;;;12.95;12.35;;;;;;;;;;5024140;28;20018;-69
2023/05/17 12:03:26;;;;;;;13.20;12.57;;;;;;;;;;5026551;28;20098;-70
2023/05/17 12:06:00;;;;;;;12.43;11.82;;;;;;;;;;5023799;28;20033;-66
2023/05/17 12:08:26;;;;;;;13.68;12.98;;;;;;;;;;5022170;28;20036;-67
2023/05/17 12:10:51;;;;;;;14.00;13.30;;;;;;;;;;5026973;28;20017;-65
2023/05/17 12:13:18;;;;;;;13.73;13.02;;;;;;;;;;5026744;28;20048;-66
2023/05/17 12:15:44;;;;;;;13.40;12.70;;;;;;;;;;5020529;28;20404;-67
2023/05/17 12:18:09;;;;;;;13.18;12.57;;;;;;;;;;5027681;28;20421;-67
2023/05/17 12:20:37;;;;;;;13.15;12.55;;;;;;;;;;5032907;28;20028;-67
2023/05/17 12:23:03;;;;;;;13.07;12.48;;;;;;;;;;5030388;28;20025;-65
2023/05/17 12:25:28;;;;;;;13.15;12.55;;;;;;;;;;5020994;28;20704;-65
2023/05/17 12:28:11;;;;;;;13.45;12.77;;;;;;;;;;5028863;28;20045;-65
2023/05/17 12:30:36;;;;;;;13.93;13.23;;;;;;;;;;5033033;28;20144;-70
2023/05/17 12:33:02;;;;;;;13.70;13.00;;;;;;;;;;5025742;28;20064;-66
2023/05/17 12:35:27;;;;;;;13.68;12.98;;;;;;;;;;5024900;28;20444;-65
2023/05/17 12:37:52;;;;;;;12.68;12.07;;;;;;;;;;5030253;28;20037;-66
2023/05/17 12:40:18;;;;;;;12.80;12.20;;;;;;;;;;5028699;28;20026;-64
2023/05/17 12:42:43;;;;;;;13.57;12.88;;;;;;;;;;5021802;28;20079;-64
2023/05/17 12:45:11;;;;;;;13.02;12.43;;;;;;;;;;5027683;28;20040;-64
2023/05/17 12:47:37;;;;;;;13.45;12.80;;;;;;;;;;5033219;28;20037;-65
2023/05/17 12:50:03;;;;;;;12.90;12.30;;;;;;;;;;5025278;28;20508;-67
2023/05/17 12:52:32;;;;;;;14.45;13.75;;;;;;;;;;5028641;28;20018;-66
2023/05/17 12:54:58;;;;;;;12.60;12.00;;;;;;;;;;5036719;28;20021;-66
2023/05/17 12:57:23;;;;;;;11.88;11.38;;;;;;;;;;5025893;28;20102;-68
2023/05/17 12:59:50;;;;;;;12.07;11.50;;;;;;;;;;5038006;28;20032;-66
2023/05/17 13:02:16;;;;;;;12.38;11.77;;;;;;;;;;5030826;28;20049;-67
2023/05/17 13:04:42;;;;;;;12.20;11.60;;;;;;;;;;5032626;28;20114;-67
2023/05/17 13:07:07;;;;;;;12.20;11.60;;;;;;;;;;5037379;28;20097;-66
2023/05/17 13:09:33;;;;;;;12.30;11.70;;;;;;;;;;5031298;28;20025;-65
2023/05/17 13:11:59;;;;;;;12.32;11.73;;;;;;;;;;5032280;28;20017;-64
2023/05/17 13:14:37;;;;;;;13.02;12.43;;;;;;;;;;5036351;28;20473;-64
2023/05/17 13:17:03;;;;;;;12.40;11.80;;;;;;;;;;5039437;28;20036;-65
2023/05/17 13:19:28;;;;;;;12.48;11.88;;;;;;;;;;5030207;28;20482;-65
2023/05/17 13:21:53;;;;;;;11.52;11.02;;;;;;;;;;5028595;28;20093;-64
2023/05/17 13:24:19;;;;;;;12.70;12.10;;;;;;;;;;5029990;28;20029;-66
2023/05/17 13:26:44;;;;;;;12.38;11.77;;;;;;;;;;5030294;28;20596;-65
2023/05/17 13:29:10;;;;;;;12.40;11.80;;;;;;;;;;5028190;28;20021;-67
2023/05/17 13:31:35;;;;;;;12.85;12.25;;;;;;;;;;5022644;28;20033;-67
2023/05/17 13:34:01;;;;;;;13.07;12.48;;;;;;;;;;5023380;28;20017;-66
2023/05/17 13:36:26;;;;;;;12.35;11.75;;;;;;;;;;5028396;28;20022;-66
2023/05/17 13:38:51;;;;;;;11.98;11.38;;;;;;;;;;5030516;28;20393;-66
2023/05/17 13:41:17;;;;;;;12.40;11.80;;;;;;;;;;5029763;28;20029;-67
2023/05/17 13:43:42;;;;;;;12.00;11.40;;;;;;;;;;5033651;28;20053;-67
2023/05/17 13:46:08;;;;;;;12.60;12.00;;;;;;;;;;5029801;28;20062;-67
2023/05/17 13:48:33;;;;;;;12.80;12.20;;;;;;;;;;5022552;28;20025;-66
2023/05/17 13:50:59;;;;;;;13.25;12.60;;;;;;;;;;5017891;28;20602;-68
2023/05/17 13:53:24;;;;;;;12.93;12.32;;;;;;;;;;5031694;28;20021;-66
2023/05/17 13:55:50;;;;;;;12.10;11.50;;;;;;;;;;5026935;28;20021;-67
2023/05/17 13:58:17;;;;;;;12.80;12.20;;;;;;;;;;5018756;28;20022;-67
2023/05/17 14:00:43;;;;;;;13.05;12.45;;;;;;;;;;5021921;28;20037;-67
2023/05/17 14:03:14;;;;;;;12.85;12.25;;;;;;;;;;5029986;28;20057;-67
2023/05/17 14:05:39;;;;;;;14.57;13.85;;;;;;;;;;5023726;28;20094;-66
2023/05/17 14:08:05;;;;;;;13.15;12.50;;;;;;;;;;5025973;28;20038;-66
2023/05/17 14:10:30;;;;;;;12.88;12.27;;;;;;;;;;5024528;28;20026;-67
2023/05/17 14:12:56;;;;;;;13.40;12.70;;;;;;;;;;5039513;28;20021;-67